Time;durP1;ratioP1;P1;durP2;ratioP2;P2;SDS_P1;SDS_P2;PMS_P1;PMS_P2;Temp;Humidity;BMP_temperature;BMP_pressure;BME280_temperature;BME280_humidity;BME280_pressure;Samples;Min_cycle;Max_cycle;Signal;HPM_P1;HPM_P2
2021/12/25 00:02:41;;;;;;;;;;;;;;;17.02;49.33;100722.09;5008180;28;20356;-58
2021/12/25 00:05:08;;;;;;;;;;;;;;;17.02;48.66;100730.13;5007946;28;19953;-59
2021/12/25 00:07:34;;;;;;;;;;;;;;;17.01;49.07;100736.47;5006713;28;19921;-58
2021/12/25 00:10:01;;;;;;;;;;;;;;;17.00;48.88;100726.72;5006673;28;20320;-59
2021/12/25 00:12:27;;;;;;;;;;;;;;;16.98;49.05;100723.38;5006588;28;20293;-59
2021/12/25 00:14:54;;;;;;;;;;;;;;;16.97;49.33;100727.91;5004673;28;20008;-60
2021/12/25 00:17:21;;;;;;;;;;;;;;;16.97;48.86;100730.56;5008661;28;19960;-58
2021/12/25 00:19:47;;;;;;;;;;;;;;;16.95;48.53;100729.03;5009860;28;19925;-58
2021/12/25 00:22:13;;;;;;;;;;;;;;;16.94;48.69;100730.88;5006416;28;20009;-59
2021/12/25 00:24:44;;;;;;;;;;;;;;;16.92;48.53;100727.47;5006895;28;20266;-58
2021/12/25 00:30:08;;;;;;;;;;;;;;;16.90;48.64;100725.97;5007269;28;19929;-58
2021/12/25 00:35:09;;;;;;;;;;;;;;;16.87;49.48;100731.59;5006500;28;19936;-58
2021/12/25 00:37:36;;;;;;;;;;;;;;;16.87;49.28;100736.97;5007439;28;19936;-58
2021/12/25 00:40:03;;;;;;;;;;;;;;;16.84;48.58;100735.41;5012801;28;19929;-58
2021/12/25 00:42:30;;;;;;;;;;;;;;;16.84;48.98;100729.22;5007452;28;19929;-59
2021/12/25 00:44:56;;;;;;;;;;;;;;;16.84;48.48;100739.91;5005832;28;19945;-58
2021/12/25 00:47:23;;;;;;;;;;;;;;;16.82;49.63;100736.56;5013750;28;19925;-59
2021/12/25 00:49:50;;;;;;;;;;;;;;;16.81;48.81;100732.22;5006502;28;19925;-59
2021/12/25 00:52:16;;;;;;;;;;;;;;;16.80;49.43;100743.88;5005733;28;20330;-59
2021/12/25 00:54:42;;;;;;;;;;;;;;;16.78;48.71;100736.03;5006941;28;20335;-58
2021/12/25 00:57:09;;;;;;;;;;;;;;;16.76;48.99;100746.00;5004612;28;19921;-59
2021/12/25 00:59:35;;;;;;;;;;;;;;;16.75;49.19;100745.16;5007054;28;19949;-59
2021/12/25 01:02:02;;;;;;;;;;;;;;;16.75;48.58;100741.66;5005438;28;20264;-59
2021/12/25 01:04:28;;;;;;;;;;;;;;;16.73;49.66;100751.69;5006144;28;20313;-59
2021/12/25 01:06:55;;;;;;;;;;;;;;;16.72;49.10;100748.13;5005377;28;20028;-59
2021/12/25 01:09:21;;;;;;;;;;;;;;;16.71;48.84;100742.91;5006348;28;19940;-59
2021/12/25 01:11:50;;;;;;;;;;;;;;;16.69;48.80;100751.09;5008080;28;19932;-59
2021/12/25 01:28:37;;;;;;;;;;;;;;;16.64;49.06;100736.44;5007263;28;20012;-59
2021/12/25 01:33:35;;;;;;;;;;;;;;;16.60;49.05;100740.41;5006656;28;19928;-58
2021/12/25 01:36:34;;;;;;;;;;;;;;;16.58;49.84;100743.25;5006708;28;19939;-58
2021/12/25 01:39:10;;;;;;;;;;;;;;;16.58;49.09;100745.09;5003442;28;19931;-58
2021/12/25 01:49:38;;;;;;;;;;;;;;;16.52;48.82;100746.50;5004045;28;19921;-57
2021/12/25 01:52:05;;;;;;;;;;;;;;;16.51;49.61;100750.16;5006277;28;19921;-57
2021/12/25 01:54:32;;;;;;;;;;;;;;;16.49;48.97;100746.81;5006368;28;19935;-58
2021/12/25 01:56:58;;;;;;;;;;;;;;;16.49;49.42;100746.81;5007745;28;20518;-59
2021/12/25 01:59:25;;;;;;;;;;;;;;;16.47;48.86;100740.75;5004773;28;20233;-59
2021/12/25 02:01:51;;;;;;;;;;;;;;;16.46;49.51;100747.09;5002240;28;20374;-59
2021/12/25 02:04:22;;;;;;;;;;;;;;;16.44;49.11;100749.94;5007553;28;19925;-58
2021/12/25 02:06:48;;;;;;;;;;;;;;;16.43;48.99;100748.22;5004544;28;20210;-59
2021/12/25 02:09:15;;;;;;;;;;;;;;;16.41;48.56;100744.84;5004747;28;20216;-59
2021/12/25 02:11:41;;;;;;;;;;;;;;;16.40;49.17;100745.00;5006244;28;20218;-58
2021/12/25 02:14:07;;;;;;;;;;;;;;;16.39;49.54;100746.81;5003516;28;20004;-58
2021/12/25 02:16:41;;;;;;;;;;;;;;;16.38;49.62;100741.63;5004669;28;19979;-58
2021/12/25 02:19:13;;;;;;;;;;;;;;;16.36;49.75;100738.25;5003790;28;19991;-59
2021/12/25 02:21:40;;;;;;;;;;;;;;;16.36;48.69;100739.13;5003724;28;19929;-59
2021/12/25 02:24:11;;;;;;;;;;;;;;;16.36;49.86;100744.47;5003504;28;20420;-59
2021/12/25 02:26:41;;;;;;;;;;;;;;;16.34;49.61;100738.41;5004732;28;19964;-58
2021/12/25 02:29:07;;;;;;;;;;;;;;;16.32;49.95;100731.50;5006233;28;19928;-58
2021/12/25 02:31:34;;;;;;;;;;;;;;;16.32;49.52;100731.50;5003702;28;20031;-58
2021/12/25 02:34:00;;;;;;;;;;;;;;;16.31;48.99;100736.00;5005717;28;20381;-58
2021/12/25 02:36:27;;;;;;;;;;;;;;;16.27;49.87;100738.13;5005195;28;19921;-58
2021/12/25 02:38:53;;;;;;;;;;;;;;;16.28;49.05;100741.63;5009344;28;19925;-58
2021/12/25 02:41:20;;;;;;;;;;;;;;;16.27;50.03;100748.81;5007206;28;20244;-59
2021/12/25 02:43:47;;;;;;;;;;;;;;;16.26;49.64;100747.13;5009069;28;19925;-58
2021/12/25 02:46:14;;;;;;;;;;;;;;;16.25;49.36;100760.66;5010222;28;20004;-59
2021/12/25 02:48:42;;;;;;;;;;;;;;;16.25;49.81;100758.84;5011120;28;19929;-57
2021/12/25 02:51:09;;;;;;;;;;;;;;;16.23;49.81;100766.13;5008433;28;19929;-57
2021/12/25 02:53:36;;;;;;;;;;;;;;;16.24;49.63;100772.31;5009108;28;19932;-57
2021/12/25 02:56:03;;;;;;;;;;;;;;;16.22;49.47;100760.94;5009838;28;20329;-57
2021/12/25 02:58:29;;;;;;;;;;;;;;;16.22;49.72;100764.47;5011836;28;19964;-57
2021/12/25 03:00:56;;;;;;;;;;;;;;;16.21;50.06;100760.09;5010208;28;20327;-57
2021/12/25 03:03:22;;;;;;;;;;;;;;;16.20;49.68;100752.22;5012821;28;19925;-58
2021/12/25 03:05:49;;;;;;;;;;;;;;;16.19;49.38;100751.38;5011756;28;19921;-57
2021/12/25 03:08:15;;;;;;;;;;;;;;;16.18;49.70;100759.56;5010969;28;19949;-57
2021/12/25 03:10:42;;;;;;;;;;;;;;;16.17;49.34;100765.91;5006358;28;20020;-58
2021/12/25 03:15:47;;;;;;;;;;;;;;;16.15;49.92;100771.38;5004528;28;19931;-58
2021/12/25 03:18:17;;;;;;;;;;;;;;;16.14;49.65;100768.84;5009285;28;20304;-58
2021/12/25 03:20:46;;;;;;;;;;;;;;;16.13;48.79;100776.03;5007890;28;19926;-58
2021/12/25 03:23:14;;;;;;;;;;;;;;;16.14;49.62;100772.34;5008129;28;19921;-57
2021/12/25 03:25:41;;;;;;;;;;;;;;;16.14;49.73;100784.88;5006834;28;20012;-58
2021/12/25 03:28:08;;;;;;;;;;;;;;;16.11;49.82;100783.34;5006746;28;20233;-57
2021/12/25 03:30:38;;;;;;;;;;;;;;;16.12;50.10;100781.50;5005523;28;20229;-57
2021/12/25 03:33:06;;;;;;;;;;;;;;;16.11;49.74;100786.00;5007103;28;20024;-57
2021/12/25 03:35:34;;;;;;;;;;;;;;;16.09;49.94;100788.00;5009719;28;20550;-57
2021/12/25 03:38:01;;;;;;;;;;;;;;;16.11;50.02;100785.16;5007521;28;19929;-57
2021/12/25 03:40:28;;;;;;;;;;;;;;;16.09;49.58;100792.50;5008057;28;19921;-58
2021/12/25 03:42:55;;;;;;;;;;;;;;;16.09;49.60;100798.69;5007518;28;19921;-57
2021/12/25 03:45:21;;;;;;;;;;;;;;;16.08;49.37;100798.81;5008330;28;19930;-57
2021/12/25 03:47:50;;;;;;;;;;;;;;;16.07;49.79;100797.13;5007231;28;19925;-58
2021/12/25 03:53:12;;;;;;;;;;;;;;;16.05;49.33;100805.31;5009077;28;19921;-57
2021/12/25 03:58:29;;;;;;;;;;;;;;;16.04;49.56;100800.94;5007685;28;19928;-57
2021/12/25 04:01:01;;;;;;;;;;;;;;;16.04;49.57;100806.31;5007021;28;19926;-58
2021/12/25 04:03:43;;;;;;;;;;;;;;;16.02;49.21;100800.22;5009412;28;19925;-58
2021/12/25 04:06:10;;;;;;;;;;;;;;;16.02;49.20;100808.25;5009035;28;19929;-58
2021/12/25 04:08:43;;;;;;;;;;;;;;;16.02;49.53;100816.28;5007355;28;20047;-58
2021/12/25 04:11:26;;;;;;;;;;;;;;;16.01;49.80;100815.44;5008777;28;19932;-58
2021/12/25 04:13:52;;;;;;;;;;;;;;;16.01;49.97;100819.94;5005839;28;19931;-58
2021/12/25 04:16:18;;;;;;;;;;;;;;;15.98;49.25;100823.72;5007348;28;19929;-58
2021/12/25 04:18:45;;;;;;;;;;;;;;;15.97;49.19;100830.06;5005662;28;19927;-58
2021/12/25 04:21:11;;;;;;;;;;;;;;;15.96;49.67;100823.03;5007215;28;19926;-58
2021/12/25 04:23:40;;;;;;;;;;;;;;;15.95;49.07;100817.81;5007667;28;20453;-58
2021/12/25 04:26:07;;;;;;;;;;;;;;;15.95;49.04;100817.81;5009660;28;20217;-58
2021/12/25 04:28:51;;;;;;;;;;;;;;;15.95;49.81;100823.16;5005849;28;19929;-58
2021/12/25 05:03:47;;;;;;;;;;;;;;;15.85;49.82;100868.59;5008473;28;19922;-58
2021/12/25 05:06:14;;;;;;;;;;;;;;;15.84;49.13;100863.38;5006455;28;19932;-58
2021/12/25 05:08:40;;;;;;;;;;;;;;;15.83;49.37;100869.72;5006212;28;19921;-58
2021/12/25 05:11:06;;;;;;;;;;;;;;;15.83;48.88;100875.06;5005099;28;19947;-58
2021/12/25 05:13:33;;;;;;;;;;;;;;;15.81;48.92;100871.69;5007125;28;19926;-58
2021/12/25 05:16:00;;;;;;;;;;;;;;;15.81;48.94;100877.03;5006914;28;19921;-57
2021/12/25 05:18:26;;;;;;;;;;;;;;;15.78;48.83;100883.50;5008714;28;19932;-58
2021/12/25 05:20:53;;;;;;;;;;;;;;;15.77;49.55;100888.00;5007454;28;19928;-58
2021/12/25 05:23:19;;;;;;;;;;;;;;;15.75;49.11;100884.59;5011297;28;19935;-58
2021/12/25 05:25:46;;;;;;;;;;;;;;;15.74;49.26;100888.28;5008635;28;19940;-58
2021/12/25 05:28:14;;;;;;;;;;;;;;;15.72;48.90;100884.06;5007397;28;20024;-58
2021/12/25 05:30:40;;;;;;;;;;;;;;;15.71;48.77;100893.88;5006805;28;20965;-58
2021/12/25 05:33:07;;;;;;;;;;;;;;;15.72;49.67;100900.09;5006617;28;19933;-57
2021/12/25 05:35:33;;;;;;;;;;;;;;;15.69;49.72;100893.19;5007964;28;19925;-57
2021/12/25 05:38:00;;;;;;;;;;;;;;;15.70;48.99;100899.38;5008686;28;20275;-57
2021/12/25 05:40:27;;;;;;;;;;;;;;;15.69;48.88;100903.88;5007181;28;19939;-57
2021/12/25 05:42:53;;;;;;;;;;;;;;;15.69;48.85;100900.38;5008236;28;20004;-57
2021/12/25 05:45:20;;;;;;;;;;;;;;;15.67;49.43;100905.81;5005377;28;19925;-58
2021/12/25 05:47:46;;;;;;;;;;;;;;;15.67;49.66;100908.50;5007793;28;20402;-58
2021/12/25 05:50:13;;;;;;;;;;;;;;;15.66;49.18;100909.50;5005924;28;19931;-58
2021/12/25 05:52:39;;;;;;;;;;;;;;;15.64;49.67;100918.56;5002950;28;19921;-57
2021/12/25 05:55:06;;;;;;;;;;;;;;;15.63;48.71;100915.06;5006243;28;19921;-57
2021/12/25 05:57:32;;;;;;;;;;;;;;;15.62;49.44;100913.38;5006665;28;19921;-58
2021/12/25 05:59:59;;;;;;;;;;;;;;;15.61;48.79;100916.19;5003966;28;19928;-57
2021/12/25 06:02:25;;;;;;;;;;;;;;;15.59;49.45;100920.81;5004308;28;19960;-58
2021/12/25 06:04:52;;;;;;;;;;;;;;;15.60;49.52;100918.03;5006130;28;20328;-57
2021/12/25 06:07:18;;;;;;;;;;;;;;;15.64;48.74;100923.91;5003082;28;20000;-58
2021/12/25 06:09:44;;;;;;;;;;;;;;;15.71;48.61;100927.78;5007121;28;20012;-57
2021/12/25 06:12:11;;;;;;;;;;;;;;;15.79;49.43;100933.28;5004930;28;19930;-57
2021/12/25 06:14:38;;;;;;;;;;;;;;;15.89;49.07;100930.66;5005148;28;19932;-57
2021/12/25 06:17:04;;;;;;;;;;;;;;;15.97;48.89;100937.00;5008089;28;19926;-57
2021/12/25 06:19:31;;;;;;;;;;;;;;;16.09;47.85;100936.88;5004079;28;19921;-57
2021/12/25 06:21:57;;;;;;;;;;;;;;;16.19;48.36;100941.22;4998229;28;19935;-57
2021/12/25 06:24:25;;;;;;;;;;;;;;;16.29;48.36;100950.13;5005202;28;19921;-58
2021/12/25 06:26:52;;;;;;;;;;;;;;;16.40;47.84;100950.97;5004809;28;19930;-58
2021/12/25 06:29:19;;;;;;;;;;;;;;;16.50;47.14;100959.84;5003841;28;19935;-58
2021/12/25 06:31:46;;;;;;;;;;;;;;;16.58;47.17;100957.31;5005433;28;19984;-57
2021/12/25 06:34:13;;;;;;;;;;;;;;;16.67;47.52;100961.81;5004583;28;19925;-57
2021/12/25 06:36:40;;;;;;;;;;;;;;;16.75;46.94;100961.97;5003903;28;19929;-58
2021/12/25 06:39:11;;;;;;;;;;;;;;;16.82;46.86;100961.41;5001800;28;19936;-58
2021/12/25 06:41:37;;;;;;;;;;;;;;;16.88;46.94;100964.34;5002447;28;19931;-58
2021/12/25 06:44:03;;;;;;;;;;;;;;;16.94;46.47;100954.91;5001634;28;19929;-58
2021/12/25 06:46:30;;;;;;;;;;;;;;;17.00;46.45;100949.84;5006424;28;19921;-57
2021/12/25 06:48:56;;;;;;;;;;;;;;;17.06;46.09;100953.75;5002463;28;20029;-58
2021/12/25 06:51:23;;;;;;;;;;;;;;;17.12;46.54;100957.69;5002372;28;19922;-58
2021/12/25 06:53:49;;;;;;;;;;;;;;;17.16;46.45;100957.25;5004469;28;19926;-58
2021/12/25 06:56:16;;;;;;;;;;;;;;;17.20;46.09;100957.81;5001000;28;19925;-57
2021/12/25 06:58:42;;;;;;;;;;;;;;;17.21;46.46;100956.84;5004157;28;19931;-58
2021/12/25 07:01:09;;;;;;;;;;;;;;;17.23;45.79;100947.63;5003310;28;19922;-57
2021/12/25 07:03:35;;;;;;;;;;;;;;;17.24;45.44;100956.53;5002323;28;19921;-57
2021/12/25 07:06:02;;;;;;;;;;;;;;;17.25;45.77;100960.91;5001724;28;19929;-58
2021/12/25 07:08:28;;;;;;;;;;;;;;;17.23;45.51;100970.91;5006525;28;20325;-58
2021/12/25 07:10:54;;;;;;;;;;;;;;;17.20;45.06;100974.72;5006126;28;20284;-57
2021/12/25 07:13:21;;;;;;;;;;;;;;;17.18;45.33;100978.53;5004935;28;20044;-57
2021/12/25 07:15:47;;;;;;;;;;;;;;;17.14;44.89;100977.16;5006288;28;20016;-57
2021/12/25 07:18:14;;;;;;;;;;;;;;;17.11;45.01;100980.09;5000938;28;19921;-58
2021/12/25 07:20:42;;;;;;;;;;;;;;;17.05;46.19;100976.19;5005470;28;19945;-57
2021/12/25 07:23:08;;;;;;;;;;;;;;;17.02;47.45;100979.97;5004916;28;21726;-57
2021/12/25 07:25:35;;;;;;;;;;;;;;;16.99;48.31;100982.09;5004271;28;19922;-58
2021/12/25 07:28:01;;;;;;;;;;;;;;;16.96;48.30;100983.22;5007423;28;19929;-58
2021/12/25 07:30:29;;;;;;;;;;;;;;;16.91;48.70;100985.47;5009369;28;19921;-57
2021/12/25 07:32:55;;;;;;;;;;;;;;;16.89;47.62;100990.16;5010759;28;19922;-57
2021/12/25 07:35:22;;;;;;;;;;;;;;;16.86;48.41;100981.56;5007044;28;20333;-58
2021/12/25 07:37:48;;;;;;;;;;;;;;;16.83;48.72;100987.19;5005165;28;20325;-57
2021/12/25 07:40:15;;;;;;;;;;;;;;;16.80;48.10;100982.94;5010358;28;19925;-57
2021/12/25 07:42:41;;;;;;;;;;;;;;;16.75;47.24;100988.75;5006362;28;20467;-58
2021/12/25 07:45:08;;;;;;;;;;;;;;;16.72;46.82;100993.50;5011305;28;20209;-57
2021/12/25 07:47:36;;;;;;;;;;;;;;;16.67;47.13;101004.63;5010255;28;19929;-57
2021/12/25 07:50:05;;;;;;;;;;;;;;;16.63;46.34;101010.41;5006967;28;19935;-58
2021/12/25 07:52:31;;;;;;;;;;;;;;;16.57;46.19;101003.78;5007975;28;19929;-58
2021/12/25 07:54:58;;;;;;;;;;;;;;;16.53;46.71;101016.59;5005886;28;19922;-57
2021/12/25 07:57:24;;;;;;;;;;;;;;;16.49;46.31;101023.22;5005675;28;20036;-57
2021/12/25 07:59:51;;;;;;;;;;;;;;;16.50;46.22;101018.72;5007952;28;19922;-57
2021/12/25 08:02:17;;;;;;;;;;;;;;;16.48;47.13;101023.34;5008928;28;19975;-57
2021/12/25 08:04:44;;;;;;;;;;;;;;;16.49;46.86;101027.72;5005491;28;20709;-57
2021/12/25 08:07:10;;;;;;;;;;;;;;;16.52;46.66;101027.44;5006219;28;19928;-57
2021/12/25 08:09:38;;;;;;;;;;;;;;;16.53;46.63;101034.50;5007910;28;20329;-57
2021/12/25 08:12:04;;;;;;;;;;;;;;;16.57;45.70;101035.06;5005913;28;20337;-58
2021/12/25 08:14:32;;;;;;;;;;;;;;;16.57;46.20;101041.25;5005987;28;19931;-58
2021/12/25 08:17:00;;;;;;;;;;;;;;;16.58;46.25;101040.25;5003158;28;19921;-58
2021/12/25 08:19:27;;;;;;;;;;;;;;;16.59;46.36;101041.94;5006235;28;19932;-58
2021/12/25 08:21:53;;;;;;;;;;;;;;;16.61;45.23;101044.50;5003574;28;20039;-57
2021/12/25 08:24:20;;;;;;;;;;;;;;;16.60;45.85;101045.47;5006623;28;19925;-57
2021/12/25 08:26:47;;;;;;;;;;;;;;;16.59;45.21;101049.13;5006513;28;19922;-57
2021/12/25 08:29:14;;;;;;;;;;;;;;;16.58;45.71;101048.28;5006968;28;19928;-57
2021/12/25 08:31:41;;;;;;;;;;;;;;;16.58;46.21;101052.81;5007521;28;19928;-48
2021/12/25 08:34:08;;;;;;;;;;;;;;;16.59;45.89;101049.97;5002305;28;19921;-45
2021/12/25 08:36:35;;;;;;;;;;;;;;;16.60;46.40;101058.84;5000906;28;19925;-48
2021/12/25 08:39:03;;;;;;;;;;;;;;;16.61;46.13;101060.56;4992941;28;19929;-46
2021/12/25 08:41:31;;;;;;;;;;;;;;;16.61;45.87;101058.72;5003882;28;19925;-47
2021/12/25 08:44:05;;;;;;;;;;;;;;;16.64;46.76;101065.59;5000731;28;20562;-46
2021/12/25 08:46:56;;;;;;;;;;;;;;;16.67;47.71;101066.19;5003618;28;19929;-47
2021/12/25 08:49:24;;;;;;;;;;;;;;;16.78;48.46;101075.94;5006657;28;19956;-46
2021/12/25 08:51:51;;;;;;;;;;;;;;;16.86;49.45;101073.41;5003357;28;19931;-49
2021/12/25 08:54:18;;;;;;;;;;;;;;;16.96;49.46;101079.59;4998311;28;19925;-49
2021/12/25 08:56:44;;;;;;;;;;;;;;;17.04;49.96;101078.91;5002519;28;20471;-47
2021/12/25 08:59:11;;;;;;;;;;;;;;;17.15;49.45;101078.75;4997383;28;19925;-44
2021/12/25 09:01:37;;;;;;;;;;;;;;;17.24;49.15;101075.22;5003836;28;19926;-41
2021/12/25 09:04:04;;;;;;;;;;;;;;;17.35;48.66;101084.94;5006103;28;20325;-41
2021/12/25 09:06:30;;;;;;;;;;;;;;;17.44;48.51;101088.59;5005667;28;20274;-42
2021/12/25 09:09:00;;;;;;;;;;;;;;;17.53;48.45;101090.44;5003548;28;19929;-42
2021/12/25 09:11:27;;;;;;;;;;;;;;;17.62;48.26;101091.41;5006038;28;20035;-42
2021/12/25 09:13:53;;;;;;;;;;;;;;;17.69;47.58;101088.00;5007283;28;20373;-41
2021/12/25 09:16:19;;;;;;;;;;;;;;;17.74;46.84;101091.09;5006747;28;20418;-42
2021/12/25 09:18:46;;;;;;;;;;;;;;;17.81;47.26;101090.50;5007859;28;19927;-43
2021/12/25 09:21:13;;;;;;;;;;;;;;;17.86;47.51;101090.94;5008508;28;19933;-42
2021/12/25 09:23:40;;;;;;;;;;;;;;;17.88;46.80;101088.94;5002116;28;20039;-42
2021/12/25 09:26:06;;;;;;;;;;;;;;;17.93;46.80;101105.41;5007553;28;19929;-43
2021/12/25 09:28:33;;;;;;;;;;;;;;;17.94;46.25;101104.44;5007874;28;19932;-42
2021/12/25 09:30:59;;;;;;;;;;;;;;;17.95;45.80;101101.63;5003974;28;20045;-42
2021/12/25 09:33:26;;;;;;;;;;;;;;;17.96;45.52;101111.34;5000659;28;20037;-42
2021/12/25 09:35:52;;;;;;;;;;;;;;;17.98;46.03;101111.22;4998186;28;19928;-43
2021/12/25 09:38:18;;;;;;;;;;;;;;;17.97;46.22;101112.22;4998673;28;19939;-42
2021/12/25 09:40:45;;;;;;;;;;;;;;;17.98;47.00;101114.75;4998400;28;19922;-41
2021/12/25 09:43:13;;;;;;;;;;;;;;;17.97;46.90;101120.25;5006972;28;20220;-41
2021/12/25 09:45:40;;;;;;;;;;;;;;;17.94;46.90;101115.19;5004217;28;19921;-40
2021/12/25 09:48:06;;;;;;;;;;;;;;;17.92;47.02;101114.47;5007413;28;19928;-41
2021/12/25 09:50:33;;;;;;;;;;;;;;;17.90;47.65;101128.03;5006570;28;19963;-40
2021/12/25 09:52:59;;;;;;;;;;;;;;;17.90;48.10;101124.50;5003661;28;19929;-41
2021/12/25 09:55:26;;;;;;;;;;;;;;;17.88;47.73;101127.31;5003192;28;20335;-41
2021/12/25 09:57:52;;;;;;;;;;;;;;;17.88;47.42;101135.38;5007749;28;19929;-41
2021/12/25 10:00:21;;;;;;;;;;;;;;;17.88;48.04;101131.84;5005631;28;19921;-41
2021/12/25 10:02:49;;;;;;;;;;;;;;;17.89;48.06;101138.88;5006366;28;19968;-41
2021/12/25 10:05:35;;;;;;;;;;;;;;;17.89;48.01;101133.53;5005185;28;19926;-41
2021/12/25 10:08:07;;;;;;;;;;;;;;;17.89;48.09;101130.84;5005507;28;20036;-40
2021/12/25 10:10:42;;;;;;;;;;;;;;;17.87;46.82;101124.78;5006880;28;20016;-40
2021/12/25 10:13:28;;;;;;;;;;;;;;;17.84;46.81;101128.59;5001542;28;20321;-41
2021/12/25 10:15:57;;;;;;;;;;;;;;;17.83;46.74;101118.03;5005034;28;20020;-41
2021/12/25 10:18:25;;;;;;;;;;;;;;;17.82;47.40;101121.72;5009787;28;19921;-41
2021/12/25 10:20:51;;;;;;;;;;;;;;;17.81;47.83;101118.19;5006767;28;19922;-41
2021/12/25 10:23:25;;;;;;;;;;;;;;;17.81;47.85;101120.88;5004241;28;19925;-41
2021/12/25 10:25:55;;;;;;;;;;;;;;;17.81;47.48;101114.63;5003536;28;20056;-41
2021/12/25 10:28:26;;;;;;;;;;;;;;;17.79;47.04;101116.63;5007470;28;19925;-41
2021/12/25 10:30:54;;;;;;;;;;;;;;;17.76;46.96;101110.56;5007393;28;20015;-43
2021/12/25 10:33:22;;;;;;;;;;;;;;;17.74;46.45;101107.19;5006209;28;19935;-41
2021/12/25 10:35:52;;;;;;;;;;;;;;;17.72;46.80;101103.75;5003591;28;19936;-41
2021/12/25 10:38:21;;;;;;;;;;;;;;;17.71;47.09;101101.25;5004846;28;19930;-41
2021/12/25 10:40:48;;;;;;;;;;;;;;;17.70;47.10;101095.03;5004917;28;20008;-41
2021/12/25 10:43:19;;;;;;;;;;;;;;;17.70;47.42;101103.06;5005405;28;19936;-42
2021/12/25 10:45:57;;;;;;;;;;;;;;;17.70;46.97;101100.41;5008609;28;19921;-40
2021/12/25 10:48:29;;;;;;;;;;;;;;;17.72;47.07;101092.19;5008073;28;20027;-40
2021/12/25 10:50:56;;;;;;;;;;;;;;;17.75;47.02;101091.94;5005722;28;20228;-40
2021/12/25 10:53:24;;;;;;;;;;;;;;;17.79;47.56;101097.88;5002378;28;20515;-40
2021/12/25 10:55:51;;;;;;;;;;;;;;;17.80;47.67;101089.66;5007278;28;19921;-40
2021/12/25 10:58:22;;;;;;;;;;;;;;;17.84;48.37;101090.22;5007285;28;20229;-41
2021/12/25 11:00:54;;;;;;;;;;;;;;;17.86;48.27;101090.94;5005593;28;19922;-40
2021/12/25 11:03:39;;;;;;;;;;;;;;;17.88;49.15;101096.97;5009639;28;19925;-40
2021/12/25 11:06:08;;;;;;;;;;;;;;;17.91;48.43;101096.69;5007693;28;19967;-40
2021/12/25 11:08:35;;;;;;;;;;;;;;;17.94;48.51;101105.28;5007061;28;19931;-41
2021/12/25 11:11:01;;;;;;;;;;;;;;;17.96;48.50;101102.47;5009933;28;19926;-41
2021/12/25 11:13:33;;;;;;;;;;;;;;;17.96;48.04;101095.25;5009678;28;19921;-40
2021/12/25 11:16:12;;;;;;;;;;;;;;;17.98;48.21;101098.66;5008464;28;20004;-40
2021/12/25 11:19:17;;;;;;;;;;;;;;;17.99;48.08;101102.16;5003485;28;19933;-40
2021/12/25 11:21:43;;;;;;;;;;;;;;;18.00;48.64;101095.81;5006907;28;19926;-40
2021/12/25 11:24:15;;;;;;;;;;;;;;;18.00;48.82;101093.97;5012330;28;19929;-40
2021/12/25 11:26:42;;;;;;;;;;;;;;;18.02;48.54;101095.69;5009181;28;20249;-40
2021/12/25 11:29:11;;;;;;;;;;;;;;;18.03;48.54;101100.88;5005578;28;20220;-40
2021/12/25 11:31:39;;;;;;;;;;;;;;;18.03;48.70;101102.72;5011454;28;20379;-40
2021/12/25 11:34:06;;;;;;;;;;;;;;;18.04;48.42;101107.94;5003482;28;19943;-40
2021/12/25 11:36:35;;;;;;;;;;;;;;;18.05;48.23;101103.41;5008674;28;20335;-40
2021/12/25 11:39:02;;;;;;;;;;;;;;;18.04;48.04;101102.56;5001757;28;20019;-40
2021/12/25 11:41:31;;;;;;;;;;;;;;;18.04;48.03;101099.03;5011120;28;19927;-40
2021/12/25 11:43:57;;;;;;;;;;;;;;;18.04;48.14;101102.56;5006335;28;19976;-40
2021/12/25 11:46:37;;;;;;;;;;;;;;;18.03;48.02;101092.84;5007900;28;19933;-40
2021/12/25 11:49:06;;;;;;;;;;;;;;;18.04;47.81;101101.72;5009563;28;20011;-40
2021/12/25 11:51:32;;;;;;;;;;;;;;;18.02;48.01;101101.88;5006243;28;20318;-40
2021/12/25 11:58:54;;;;;;;;;;;;;;;18.01;47.69;101097.53;5009605;28;19927;-39
2021/12/25 12:01:28;;;;;;;;;;;;;;;18.01;47.53;101092.16;5008542;28;19929;-40
2021/12/25 12:03:58;;;;;;;;;;;;;;;18.02;47.43;101091.16;5007497;28;19944;-40
2021/12/25 12:06:43;;;;;;;;;;;;;;;18.03;47.21;101092.84;5006600;28;20008;-40
2021/12/25 12:09:13;;;;;;;;;;;;;;;18.03;47.43;101087.47;5007133;28;20315;-40
2021/12/25 12:11:42;;;;;;;;;;;;;;;18.05;47.95;101098.03;5006364;28;19926;-40
2021/12/25 12:14:15;;;;;;;;;;;;;;;18.06;47.52;101094.38;5006034;28;19960;-40
2021/12/25 12:16:52;;;;;;;;;;;;;;;18.07;46.82;101088.88;5007360;28;20012;-41
2021/12/25 12:19:35;;;;;;;;;;;;;;;18.06;46.32;101084.50;5007477;28;20027;-41
2021/12/25 12:22:14;;;;;;;;;;;;;;;18.05;46.64;101082.81;5005112;28;19932;-41
2021/12/25 12:27:10;;;;;;;;;;;;;;;18.06;44.98;101089.88;5006624;28;19931;-40
2021/12/25 12:29:37;;;;;;;;;;;;;;;18.07;45.70;101083.50;5007306;28;19961;-40
2021/12/25 12:32:04;;;;;;;;;;;;;;;18.07;45.76;101086.19;5008139;28;19925;-40
2021/12/25 12:34:30;;;;;;;;;;;;;;;18.09;45.78;101080.66;5007558;28;19929;-41
2021/12/25 12:37:15;;;;;;;;;;;;;;;18.09;45.59;101084.22;5004054;28;19931;-41
2021/12/25 12:39:41;;;;;;;;;;;;;;;18.10;45.42;101088.56;5008710;28;20305;-40
2021/12/25 12:42:11;;;;;;;;;;;;;;;18.10;45.56;101088.56;5005659;28;20434;-41
2021/12/25 12:45:11;;;;;;;;;;;;;;;18.11;45.53;101086.72;5005669;28;19921;-41
2021/12/25 12:47:37;;;;;;;;;;;;;;;18.10;45.48;101085.91;5005069;28;20310;-41
2021/12/25 12:50:13;;;;;;;;;;;;;;;18.11;45.53;101079.53;5004154;28;19930;-40
2021/12/25 12:52:40;;;;;;;;;;;;;;;18.10;45.29;101075.16;5007283;28;19925;-41
2021/12/25 12:55:24;;;;;;;;;;;;;;;18.11;45.33;101071.47;5007209;28;19921;-40
2021/12/25 12:58:04;;;;;;;;;;;;;;;18.11;45.32;101067.97;5003880;28;20292;-40
2021/12/25 13:00:31;;;;;;;;;;;;;;;18.11;45.45;101065.28;5006669;28;20327;-41
2021/12/25 13:02:57;;;;;;;;;;;;;;;18.11;45.26;101062.59;5005761;28;20020;-40
2021/12/25 13:05:35;;;;;;;;;;;;;;;18.09;45.39;101062.75;5008784;28;19953;-41
2021/12/25 13:08:14;;;;;;;;;;;;;;;18.11;45.43;101076.00;5007983;28;20008;-41
2021/12/25 13:10:51;;;;;;;;;;;;;;;18.10;45.27;101063.59;5008020;28;19936;-41
2021/12/25 13:13:17;;;;;;;;;;;;;;;18.08;45.42;101070.94;5009553;28;20012;-41
2021/12/25 13:15:45;;;;;;;;;;;;;;;18.06;45.48;101064.88;5010087;28;19970;-41
2021/12/25 13:18:12;;;;;;;;;;;;;;;18.06;45.21;101064.88;5010004;28;20024;-40
2021/12/25 13:20:47;;;;;;;;;;;;;;;18.05;45.38;101074.78;5007560;28;20342;-41
2021/12/25 13:23:18;;;;;;;;;;;;;;;18.07;44.92;101064.72;5004982;28;19956;-41
2021/12/25 13:25:47;;;;;;;;;;;;;;;18.08;45.24;101058.34;5003681;28;19921;-41
2021/12/25 13:28:13;;;;;;;;;;;;;;;18.09;44.95;101070.81;5005693;28;19925;-41
2021/12/25 13:30:43;;;;;;;;;;;;;;;18.11;44.98;101078.69;5002153;28;19922;-41
2021/12/25 13:33:13;;;;;;;;;;;;;;;18.10;45.08;101069.81;5003738;28;19925;-40
2021/12/25 13:35:40;;;;;;;;;;;;;;;18.09;44.65;101069.94;5002419;28;19939;-40
2021/12/25 13:38:12;;;;;;;;;;;;;;;18.07;44.95;101070.09;5003889;28;20016;-40
2021/12/25 13:40:45;;;;;;;;;;;;;;;18.06;44.71;101067.56;5004918;28;20019;-41
2021/12/25 13:43:11;;;;;;;;;;;;;;;18.04;44.39;101078.44;5002118;28;19929;-40
2021/12/25 13:45:38;;;;;;;;;;;;;;;18.02;44.16;101080.44;5003494;28;20325;-41
2021/12/25 13:48:05;;;;;;;;;;;;;;;17.99;43.52;101078.03;5001234;28;20009;-41
2021/12/25 13:50:32;;;;;;;;;;;;;;;17.96;43.50;101086.38;5004657;28;20195;-40
2021/12/25 13:52:59;;;;;;;;;;;;;;;17.92;43.36;101082.28;5003585;28;19964;-40
2021/12/25 13:55:27;;;;;;;;;;;;;;;17.88;43.55;101087.09;5004520;28;19929;-41
2021/12/25 13:57:55;;;;;;;;;;;;;;;17.84;42.79;101091.06;5006103;28;20237;-40
2021/12/25 14:00:27;;;;;;;;;;;;;;;17.79;43.30;101076.41;5000667;28;19929;-40
2021/12/25 14:02:55;;;;;;;;;;;;;;;17.74;43.58;101071.47;5002837;28;19926;-40